Time;durP1;ratioP1;P1;durP2;ratioP2;P2;SDS_P1;SDS_P2;PMS_P1;PMS_P2;Temp;Humidity;BMP_temperature;BMP_pressure;BME280_temperature;BME280_humidity;BME280_pressure;Samples;Min_cycle;Max_cycle;Signal;HPM_P1;HPM_P2
2021/05/09 00:01:02;;;;;;;1.82;1.39;;;;;;;18.90;45.12;99892.77;;;;-49
2021/05/09 00:04:02;;;;;;;1.54;1.44;;;;;;;18.89;45.14;99887.75;;;;-50
2021/05/09 00:07:02;;;;;;;2.00;1.57;;;;;;;18.88;45.12;99883.14;;;;-47
2021/05/09 00:10:02;;;;;;;1.61;1.51;;;;;;;18.89;45.14;99879.16;;;;-51
2021/05/09 00:13:02;;;;;;;2.05;1.60;;;;;;;18.88;45.14;99874.76;;;;-45
2021/05/09 00:16:02;;;;;;;1.71;1.61;;;;;;;18.86;45.17;99873.23;;;;-45
2021/05/09 00:19:02;;;;;;;1.50;1.40;;;;;;;18.85;45.14;99876.22;;;;-49
2021/05/09 00:22:02;;;;;;;1.53;1.43;;;;;;;18.85;45.16;99869.25;;;;-45
2021/05/09 00:25:02;;;;;;;1.51;1.41;;;;;;;18.84;45.19;99873.88;;;;-47
2021/05/09 00:28:02;;;;;;;1.67;1.57;;;;;;;18.84;45.16;99873.13;;;;-47
2021/05/09 00:31:02;;;;;;;1.51;1.41;;;;;;;18.83;45.18;99875.02;;;;-51
2021/05/09 00:34:02;;;;;;;1.70;1.60;;;;;;;18.83;45.19;99871.53;;;;-51
2021/05/09 00:37:02;;;;;;;1.50;1.40;;;;;;;18.81;45.18;99871.36;;;;-46
2021/05/09 00:40:02;;;;;;;1.59;1.49;;;;;;;18.81;45.19;99871.69;;;;-51
2021/05/09 00:43:02;;;;;;;1.60;1.50;;;;;;;18.80;45.18;99868.83;;;;-51
2021/05/09 00:46:02;;;;;;;1.60;1.50;;;;;;;18.80;45.22;99869.23;;;;-46
2021/05/09 00:49:02;;;;;;;1.55;1.45;;;;;;;18.79;45.21;99862.19;;;;-45
2021/05/09 00:52:02;;;;;;;2.13;1.40;;;;;;;18.78;45.20;99861.30;;;;-45
2021/05/09 00:55:02;;;;;;;1.96;1.47;;;;;;;18.77;45.25;99862.47;;;;-47
2021/05/09 00:58:02;;;;;;;1.59;1.49;;;;;;;18.77;45.22;99859.72;;;;-46
2021/05/09 01:01:02;;;;;;;1.58;1.48;;;;;;;18.76;45.22;99849.97;;;;-46
2021/05/09 01:04:02;;;;;;;1.56;1.46;;;;;;;18.75;45.21;99842.35;;;;-45
2021/05/09 01:07:02;;;;;;;1.50;1.40;;;;;;;18.74;45.22;99840.98;;;;-45
2021/05/09 01:10:02;;;;;;;1.58;1.48;;;;;;;18.73;45.22;99837.06;;;;-45
2021/05/09 01:13:02;;;;;;;1.50;1.40;;;;;;;18.72;45.27;99838.05;;;;-45
2021/05/09 01:16:02;;;;;;;1.61;1.51;;;;;;;18.72;45.25;99834.48;;;;-51
2021/05/09 01:19:02;;;;;;;1.61;1.51;;;;;;;18.71;45.22;99826.52;;;;-52
2021/05/09 01:22:02;;;;;;;1.45;1.35;;;;;;;18.71;45.26;99817.92;;;;-46
2021/05/09 01:25:02;;;;;;;1.50;1.40;;;;;;;18.71;45.24;99812.41;;;;-45
2021/05/09 01:28:02;;;;;;;1.69;1.59;;;;;;;18.69;45.25;99809.15;;;;-46
2021/05/09 01:31:02;;;;;;;1.49;1.39;;;;;;;18.68;45.25;99804.70;;;;-47
2021/05/09 01:34:02;;;;;;;1.51;1.41;;;;;;;18.68;45.31;99808.27;;;;-47
2021/05/09 01:37:02;;;;;;;1.59;1.49;;;;;;;18.68;45.25;99805.84;;;;-47
2021/05/09 01:40:02;;;;;;;1.50;1.40;;;;;;;18.68;45.27;99805.19;;;;-49
2021/05/09 01:43:02;;;;;;;1.58;1.48;;;;;;;18.68;45.25;99805.60;;;;-49
2021/05/09 01:46:02;;;;;;;1.71;1.47;;;;;;;18.66;45.30;99804.21;;;;-50
2021/05/09 01:49:02;;;;;;;1.63;1.51;;;;;;;18.65;45.30;99805.66;;;;-47
2021/05/09 01:52:02;;;;;;;1.64;1.54;;;;;;;18.66;45.29;99805.12;;;;-47
2021/05/09 01:55:02;;;;;;;1.70;1.60;;;;;;;18.65;45.29;99812.73;;;;-47
2021/05/09 01:58:02;;;;;;;1.47;1.37;;;;;;;18.64;45.27;99812.17;;;;-47
2021/05/09 02:01:02;;;;;;;1.64;1.54;;;;;;;18.64;45.31;99808.53;;;;-51
2021/05/09 02:04:02;;;;;;;1.65;1.55;;;;;;;18.63;45.30;99804.53;;;;-51
2021/05/09 02:07:02;;;;;;;1.53;1.43;;;;;;;18.62;45.29;99800.48;;;;-49
2021/05/09 02:10:02;;;;;;;1.60;1.50;;;;;;;18.62;45.31;99799.51;;;;-50
2021/05/09 02:13:02;;;;;;;1.52;1.42;;;;;;;18.62;45.32;99795.30;;;;-52
2021/05/09 02:16:02;;;;;;;1.73;1.50;;;;;;;18.61;45.30;99793.17;;;;-50
2021/05/09 02:19:02;;;;;;;1.50;1.40;;;;;;;18.61;45.29;99789.44;;;;-47
2021/05/09 02:22:02;;;;;;;1.55;1.45;;;;;;;18.60;45.33;99786.13;;;;-51
2021/05/09 02:25:02;;;;;;;1.57;1.47;;;;;;;18.60;45.33;99785.80;;;;-52
2021/05/09 02:28:02;;;;;;;1.52;1.42;;;;;;;18.60;45.30;99790.91;;;;-51
2021/05/09 02:31:02;;;;;;;1.47;1.37;;;;;;;18.59;45.31;99788.16;;;;-48
2021/05/09 02:34:02;;;;;;;1.60;1.50;;;;;;;18.59;45.34;99784.81;;;;-47
2021/05/09 02:37:02;;;;;;;1.50;1.40;;;;;;;18.57;45.33;99786.45;;;;-46
2021/05/09 02:40:02;;;;;;;1.49;1.39;;;;;;;18.58;45.36;99789.30;;;;-47
2021/05/09 02:43:02;;;;;;;1.50;1.40;;;;;;;18.58;45.32;99791.41;;;;-47
2021/05/09 02:46:02;;;;;;;1.55;1.45;;;;;;;18.56;45.33;99792.77;;;;-47
2021/05/09 02:49:02;;;;;;;1.60;1.50;;;;;;;18.57;45.32;99794.15;;;;-45
2021/05/09 02:52:02;;;;;;;1.51;1.41;;;;;;;18.56;45.30;99793.43;;;;-45
2021/05/09 02:55:02;;;;;;;1.61;1.51;;;;;;;18.55;45.32;99790.35;;;;-46
2021/05/09 02:58:02;;;;;;;1.50;1.40;;;;;;;18.56;45.36;99786.21;;;;-45
2021/05/09 03:01:02;;;;;;;1.53;1.43;;;;;;;18.54;45.38;99789.45;;;;-46
2021/05/09 03:04:02;;;;;;;1.41;1.31;;;;;;;18.54;45.35;99791.16;;;;-45
2021/05/09 03:07:02;;;;;;;1.55;1.45;;;;;;;18.54;45.34;99791.41;;;;-50
2021/05/09 03:10:02;;;;;;;1.50;1.40;;;;;;;18.54;45.37;99791.00;;;;-49
2021/05/09 03:13:02;;;;;;;1.50;1.40;;;;;;;18.53;45.35;99791.23;;;;-50
2021/05/09 03:16:02;;;;;;;1.51;1.41;;;;;;;18.53;45.38;99793.83;;;;-50
2021/05/09 03:19:02;;;;;;;1.50;1.40;;;;;;;18.52;45.35;99797.00;;;;-45
2021/05/09 03:22:02;;;;;;;1.67;1.57;;;;;;;18.52;45.33;99794.64;;;;-46
2021/05/09 03:25:02;;;;;;;1.63;1.47;;;;;;;18.52;45.40;99791.25;;;;-45
2021/05/09 03:28:02;;;;;;;1.60;1.50;;;;;;;18.50;45.39;99790.34;;;;-47
2021/05/09 03:31:02;;;;;;;1.40;1.30;;;;;;;18.51;45.37;99791.06;;;;-47
2021/05/09 03:34:02;;;;;;;1.52;1.42;;;;;;;18.51;45.32;99788.47;;;;-47
2021/05/09 03:37:02;;;;;;;1.46;1.36;;;;;;;18.49;45.36;99786.78;;;;-47
2021/05/09 03:40:02;;;;;;;1.57;1.47;;;;;;;18.49;45.39;99781.08;;;;-47
2021/05/09 03:43:02;;;;;;;1.40;1.30;;;;;;;18.49;45.38;99779.63;;;;-51
2021/05/09 03:46:02;;;;;;;1.49;1.39;;;;;;;18.48;45.39;99773.30;;;;-50
2021/05/09 03:49:02;;;;;;;1.49;1.39;;;;;;;18.48;45.38;99773.55;;;;-49
2021/05/09 03:52:02;;;;;;;1.50;1.40;;;;;;;18.48;45.39;99769.33;;;;-47
2021/05/09 03:55:02;;;;;;;1.43;1.33;;;;;;;18.47;45.35;99766.02;;;;-47
2021/05/09 03:58:02;;;;;;;1.51;1.41;;;;;;;18.46;45.41;99755.70;;;;-49
2021/05/09 04:01:02;;;;;;;1.49;1.39;;;;;;;18.47;45.41;99750.26;;;;-49
2021/05/09 04:04:02;;;;;;;1.59;1.49;;;;;;;18.46;45.40;99756.52;;;;-50
2021/05/09 04:07:02;;;;;;;1.50;1.40;;;;;;;18.45;45.41;99745.33;;;;-50
2021/05/09 04:10:02;;;;;;;1.55;1.45;;;;;;;18.46;45.38;99741.34;;;;-49
2021/05/09 04:13:02;;;;;;;1.48;1.38;;;;;;;18.45;45.41;99743.45;;;;-49
2021/05/09 04:16:02;;;;;;;1.56;1.46;;;;;;;18.45;45.44;99747.02;;;;-49
2021/05/09 04:19:02;;;;;;;1.48;1.38;;;;;;;18.45;45.43;99747.98;;;;-49
2021/05/09 04:22:02;;;;;;;1.60;1.50;;;;;;;18.44;45.42;99751.25;;;;-49
2021/05/09 04:25:02;;;;;;;1.55;1.45;;;;;;;18.44;45.42;99754.89;;;;-49
2021/05/09 04:28:02;;;;;;;1.50;1.40;;;;;;;18.43;45.40;99752.39;;;;-49
2021/05/09 04:31:02;;;;;;;1.38;1.28;;;;;;;18.43;45.41;99756.28;;;;-49
2021/05/09 04:34:02;;;;;;;1.49;1.39;;;;;;;18.43;45.42;99754.96;;;;-50
2021/05/09 04:37:02;;;;;;;1.51;1.41;;;;;;;18.43;45.43;99766.32;;;;-49
2021/05/09 04:40:02;;;;;;;1.30;1.20;;;;;;;18.42;45.50;99753.11;;;;-49
2021/05/09 04:43:02;;;;;;;1.50;1.40;;;;;;;18.41;45.55;99752.72;;;;-49
2021/05/09 04:46:02;;;;;;;1.50;1.40;;;;;;;18.41;45.50;99758.48;;;;-49
2021/05/09 04:49:02;;;;;;;1.50;1.40;;;;;;;18.41;45.45;99758.31;;;;-50
2021/05/09 04:52:02;;;;;;;1.76;1.40;;;;;;;18.41;45.49;99762.27;;;;-49
2021/05/09 04:55:01;;;;;;;1.49;1.39;;;;;;;18.40;45.47;99752.30;;;;-50
2021/05/09 04:58:02;;;;;;;1.47;1.37;;;;;;;18.40;45.49;99757.48;;;;-49
2021/05/09 05:01:02;;;;;;;1.60;1.50;;;;;;;18.40;45.50;99763.49;;;;-49
2021/05/09 05:04:02;;;;;;;1.52;1.42;;;;;;;18.40;45.46;99764.87;;;;-49
2021/05/09 05:07:02;;;;;;;1.57;1.47;;;;;;;18.39;45.41;99765.86;;;;-46
2021/05/09 05:10:02;;;;;;;1.50;1.40;;;;;;;18.39;45.43;99765.05;;;;-49
2021/05/09 05:13:02;;;;;;;1.45;1.35;;;;;;;18.38;45.47;99763.81;;;;-50
2021/05/09 05:16:01;;;;;;;1.50;1.40;;;;;;;18.38;45.44;99764.05;;;;-49
2021/05/09 05:19:01;;;;;;;1.67;1.49;;;;;;;18.38;45.44;99758.70;;;;-46
2021/05/09 05:22:03;;;;;;;1.60;1.50;;;;;;;18.39;45.40;99756.53;;;;-47
2021/05/09 05:25:02;;;;;;;1.50;1.40;;;;;;;18.40;45.40;99755.78;;;;-45
2021/05/09 05:28:02;;;;;;;1.53;1.43;;;;;;;18.42;45.41;99759.77;;;;-49
2021/05/09 05:31:02;;;;;;;1.43;1.33;;;;;;;18.43;45.34;99753.84;;;;-46
2021/05/09 05:34:02;;;;;;;1.54;1.44;;;;;;;18.46;45.29;99756.28;;;;-46
2021/05/09 05:37:02;;;;;;;1.41;1.31;;;;;;;18.48;45.35;99748.16;;;;-45
2021/05/09 05:40:01;;;;;;;1.40;1.30;;;;;;;18.51;45.36;99755.72;;;;-46
2021/05/09 05:43:02;;;;;;;1.55;1.45;;;;;;;18.53;45.39;99754.25;;;;-46
2021/05/09 05:46:03;;;;;;;1.50;1.40;;;;;;;18.56;45.33;99752.20;;;;-49
2021/05/09 05:49:02;;;;;;;1.49;1.39;;;;;;;18.59;45.45;99755.70;;;;-50
2021/05/09 05:52:01;;;;;;;1.50;1.40;;;;;;;18.62;45.46;99754.07;;;;-49
2021/05/09 05:55:01;;;;;;;1.50;1.40;;;;;;;18.64;45.41;99751.22;;;;-49
2021/05/09 05:58:01;;;;;;;1.40;1.30;;;;;;;18.68;45.52;99759.18;;;;-49
2021/05/09 06:01:01;;;;;;;1.45;1.35;;;;;;;18.70;45.53;99752.27;;;;-52
2021/05/09 06:04:02;;;;;;;1.52;1.42;;;;;;;18.73;45.52;99758.43;;;;-45
2021/05/09 06:07:01;;;;;;;1.50;1.40;;;;;;;18.75;45.52;99754.53;;;;-45
2021/05/09 06:10:01;;;;;;;1.47;1.35;;;;;;;18.76;45.52;99755.33;;;;-49
2021/05/09 06:13:01;;;;;;;1.47;1.37;;;;;;;18.77;45.55;99757.13;;;;-49
2021/05/09 06:16:01;;;;;;;1.43;1.33;;;;;;;18.80;45.53;99759.00;;;;-52
2021/05/09 06:19:02;;;;;;;1.47;1.37;;;;;;;18.80;45.55;99762.11;;;;-51
2021/05/09 06:22:01;;;;;;;1.40;1.30;;;;;;;18.82;45.49;99767.93;;;;-50
2021/05/09 06:25:01;;;;;;;1.40;1.30;;;;;;;18.83;45.47;99770.94;;;;-52
2021/05/09 06:28:01;;;;;;;1.49;1.39;;;;;;;18.82;45.45;99766.73;;;;-51
2021/05/09 06:31:01;;;;;;;1.40;1.30;;;;;;;18.83;45.46;99762.00;;;;-47
2021/05/09 06:34:02;;;;;;;1.40;1.30;;;;;;;18.84;45.47;99762.18;;;;-52
2021/05/09 06:37:02;;;;;;;1.34;1.24;;;;;;;18.85;45.45;99758.27;;;;-51
2021/05/09 06:40:02;;;;;;;1.49;1.39;;;;;;;18.85;45.44;99760.78;;;;-51
2021/05/09 06:43:02;;;;;;;1.39;1.29;;;;;;;18.86;45.41;99760.86;;;;-51
2021/05/09 06:46:02;;;;;;;1.50;1.40;;;;;;;18.86;45.38;99759.80;;;;-52
2021/05/09 06:49:02;;;;;;;1.67;1.41;;;;;;;18.86;45.41;99756.22;;;;-47
2021/05/09 06:52:02;;;;;;;1.37;1.27;;;;;;;18.87;45.38;99753.97;;;;-47
2021/05/09 06:55:02;;;;;;;1.20;1.20;;;;;;;18.86;45.38;99753.30;;;;-47
2021/05/09 06:58:01;;;;;;;1.44;1.34;;;;;;;18.87;45.29;99756.65;;;;-50
2021/05/09 07:01:01;;;;;;;1.49;1.35;;;;;;;18.87;45.29;99754.53;;;;-45
2021/05/09 07:04:01;;;;;;;1.40;1.30;;;;;;;18.87;45.30;99756.56;;;;-45
2021/05/09 07:07:01;;;;;;;1.37;1.27;;;;;;;18.87;45.26;99752.67;;;;-45
2021/05/09 07:10:01;;;;;;;1.29;1.20;;;;;;;18.86;45.26;99755.17;;;;-45
2021/05/09 07:13:01;;;;;;;1.40;1.30;;;;;;;18.86;45.27;99752.73;;;;-45
2021/05/09 07:16:01;;;;;;;1.39;1.29;;;;;;;18.86;45.21;99751.92;;;;-47
2021/05/09 07:19:03;;;;;;;1.35;1.25;;;;;;;18.85;45.22;99755.34;;;;-51
2021/05/09 07:22:04;;;;;;;1.40;1.30;;;;;;;18.85;45.23;99751.13;;;;-49
2021/05/09 07:25:02;;;;;;;1.40;1.30;;;;;;;18.85;45.18;99754.05;;;;-49
2021/05/09 07:28:01;;;;;;;1.31;1.21;;;;;;;18.85;45.20;99751.45;;;;-50
2021/05/09 07:31:01;;;;;;;1.39;1.29;;;;;;;18.84;45.15;99752.01;;;;-50
2021/05/09 07:34:01;;;;;;;1.39;1.29;;;;;;;18.84;45.17;99749.50;;;;-49
2021/05/09 07:37:01;;;;;;;1.41;1.31;;;;;;;18.84;45.12;99747.47;;;;-47
2021/05/09 07:40:02;;;;;;;1.48;1.38;;;;;;;18.84;45.15;99751.61;;;;-48
2021/05/09 07:43:01;;;;;;;1.30;1.20;;;;;;;18.83;45.14;99751.38;;;;-47
2021/05/09 07:46:02;;;;;;;1.46;1.36;;;;;;;18.83;45.09;99745.22;;;;-47
2021/05/09 07:49:01;;;;;;;1.40;1.30;;;;;;;18.83;45.11;99735.80;;;;-47
2021/05/09 07:52:02;;;;;;;4.52;1.37;;;;;;;18.83;45.38;99731.41;;;;-51
2021/05/09 07:55:01;;;;;;;1.91;1.37;;;;;;;18.84;45.66;99732.53;;;;-49
2021/05/09 07:58:01;;;;;;;2.55;1.50;;;;;;;18.84;45.94;99730.59;;;;-48
2021/05/09 08:01:02;;;;;;;4.53;1.63;;;;;;;18.85;46.07;99723.69;;;;-51
2021/05/09 08:04:04;;;;;;;5.65;1.70;;;;;;;18.85;46.05;99716.38;;;;-50
2021/05/09 08:07:02;;;;;;;6.93;1.79;;;;;;;18.87;46.26;99719.63;;;;-53
2021/05/09 08:10:01;;;;;;;6.09;1.62;;;;;;;18.88;46.43;99714.25;;;;-53
2021/05/09 08:13:01;;;;;;;4.43;1.82;;;;;;;18.89;46.49;99705.17;;;;-54
2021/05/09 08:16:02;;;;;;;8.88;2.01;;;;;;;18.91;46.47;99699.57;;;;-54
2021/05/09 08:19:02;;;;;;;5.94;1.79;;;;;;;18.91;46.35;99700.53;;;;-54
2021/05/09 08:22:01;;;;;;;3.73;1.83;;;;;;;18.92;46.74;99694.75;;;;-52
2021/05/09 08:25:01;;;;;;;2.74;1.67;;;;;;;18.93;46.78;99693.39;;;;-52
2021/05/09 08:28:01;;;;;;;3.84;1.77;;;;;;;18.94;46.83;99691.98;;;;-52
2021/05/09 08:31:01;;;;;;;6.06;1.73;;;;;;;18.95;46.75;99688.27;;;;-52
2021/05/09 08:34:01;;;;;;;4.41;1.76;;;;;;;18.95;46.78;99689.48;;;;-54
2021/05/09 08:37:01;;;;;;;3.30;1.78;;;;;;;18.97;46.86;99684.05;;;;-53
2021/05/09 08:40:01;;;;;;;4.10;1.79;;;;;;;18.99;46.69;99680.14;;;;-47
2021/05/09 08:43:01;;;;;;;5.81;1.90;;;;;;;18.99;46.76;99689.88;;;;-46
2021/05/09 08:46:01;;;;;;;2.97;1.61;;;;;;;19.01;46.71;99685.38;;;;-58
2021/05/09 08:49:01;;;;;;;4.03;1.60;;;;;;;19.01;46.65;99683.22;;;;-56
2021/05/09 08:52:01;;;;;;;3.08;1.62;;;;;;;19.01;46.67;99673.79;;;;-57
2021/05/09 08:55:02;;;;;;;2.67;1.71;;;;;;;19.01;46.63;99669.24;;;;-58
2021/05/09 08:58:01;;;;;;;1.95;1.75;;;;;;;19.01;46.59;99666.80;;;;-54
2021/05/09 09:01:01;;;;;;;4.92;1.60;;;;;;;19.03;46.55;99653.38;;;;-50
2021/05/09 09:04:01;;;;;;;2.19;1.70;;;;;;;19.03;46.53;99653.89;;;;-52
2021/05/09 09:07:01;;;;;;;2.45;1.65;;;;;;;19.03;46.51;99646.83;;;;-51
2021/05/09 09:10:01;;;;;;;2.36;1.65;;;;;;;19.04;46.70;99646.72;;;;-54
2021/05/09 09:13:03;;;;;;;4.04;1.69;;;;;;;19.04;46.60;99646.08;;;;-57
2021/05/09 09:16:01;;;;;;;2.79;1.86;;;;;;;19.04;46.61;99636.57;;;;-52
2021/05/09 09:19:01;;;;;;;5.15;1.78;;;;;;;19.05;46.65;99635.20;;;;-46
2021/05/09 09:22:01;;;;;;;1.95;1.73;;;;;;;19.06;46.64;99631.62;;;;-51
2021/05/09 09:25:01;;;;;;;4.29;1.73;;;;;;;19.07;46.56;99627.13;;;;-49
2021/05/09 09:28:01;;;;;;;3.08;1.89;;;;;;;19.09;46.69;99612.59;;;;-50
2021/05/09 09:31:01;;;;;;;3.57;1.75;;;;;;;19.08;46.43;99610.72;;;;-57
2021/05/09 09:34:02;;;;;;;2.69;1.67;;;;;;;19.08;46.43;99610.56;;;;-57
2021/05/09 09:37:02;;;;;;;3.86;1.69;;;;;;;19.08;46.34;99608.78;;;;-57
2021/05/09 09:40:02;;;;;;;2.36;1.82;;;;;;;19.07;46.29;99598.31;;;;-57
2021/05/09 09:43:01;;;;;;;2.23;1.71;;;;;;;19.07;46.24;99597.27;;;;-51
2021/05/09 09:46:01;;;;;;;4.95;1.74;;;;;;;19.07;46.16;99588.42;;;;-57
2021/05/09 09:49:03;;;;;;;2.48;1.89;;;;;;;19.07;46.12;99583.53;;;;-53
2021/05/09 09:52:01;;;;;;;2.73;1.75;;;;;;;19.06;46.09;99581.75;;;;-50
2021/05/09 09:55:01;;;;;;;2.30;1.70;;;;;;;19.06;46.07;99579.00;;;;-51
2021/05/09 09:58:01;;;;;;;2.59;1.73;;;;;;;19.05;46.01;99576.48;;;;-52
2021/05/09 10:01:02;;;;;;;1.75;1.65;;;;;;;19.06;45.99;99569.91;;;;-52
2021/05/09 10:04:01;;;;;;;2.05;1.59;;;;;;;19.05;45.95;99564.70;;;;-50
2021/05/09 10:07:01;;;;;;;2.89;1.63;;;;;;;19.05;46.01;99553.89;;;;-50
2021/05/09 10:10:02;;;;;;;2.94;1.64;;;;;;;19.05;46.02;99552.13;;;;-50
2021/05/09 10:13:01;;;;;;;1.85;1.60;;;;;;;19.04;45.91;99550.67;;;;-50
2021/05/09 10:16:01;;;;;;;2.78;1.61;;;;;;;19.04;45.88;99545.14;;;;-50
2021/05/09 10:19:01;;;;;;;1.66;1.55;;;;;;;19.03;45.86;99539.98;;;;-48
2021/05/09 10:22:01;;;;;;;2.20;1.70;;;;;;;19.03;45.85;99539.89;;;;-53
2021/05/09 10:25:01;;;;;;;2.39;1.70;;;;;;;19.03;45.84;99533.53;;;;-50
2021/05/09 10:28:01;;;;;;;2.45;1.71;;;;;;;19.02;45.81;99534.76;;;;-53
2021/05/09 10:31:01;;;;;;;2.54;1.82;;;;;;;19.02;45.84;99533.55;;;;-50
2021/05/09 10:34:01;;;;;;;1.94;1.69;;;;;;;19.02;45.79;99534.52;;;;-52
2021/05/09 10:37:01;;;;;;;1.87;1.53;;;;;;;19.01;45.78;99531.95;;;;-52
2021/05/09 10:40:01;;;;;;;2.76;1.59;;;;;;;19.00;45.75;99527.95;;;;-52
2021/05/09 10:43:01;;;;;;;2.27;1.54;;;;;;;19.00;45.72;99526.75;;;;-53
2021/05/09 10:46:01;;;;;;;2.31;1.63;;;;;;;18.99;45.75;99523.91;;;;-53
2021/05/09 10:49:01;;;;;;;1.84;1.61;;;;;;;18.99;45.74;99518.56;;;;-50
2021/05/09 10:52:01;;;;;;;2.37;1.69;;;;;;;18.97;45.73;99517.84;;;;-48
2021/05/09 10:55:01;;;;;;;2.01;1.68;;;;;;;18.97;45.73;99513.21;;;;-52
2021/05/09 10:58:01;;;;;;;1.66;1.51;;;;;;;18.97;45.73;99509.80;;;;-48
2021/05/09 11:01:01;;;;;;;1.72;1.60;;;;;;;18.98;45.69;99507.35;;;;-50
2021/05/09 11:04:01;;;;;;;3.36;1.90;;;;;;;18.98;46.20;99504.34;;;;-55
2021/05/09 11:07:01;;;;;;;7.84;1.74;;;;;;;18.97;45.85;99496.08;;;;-55
2021/05/09 11:10:01;;;;;;;4.58;1.77;;;;;;;18.99;45.84;99497.37;;;;-55
2021/05/09 11:13:01;;;;;;;2.19;1.62;;;;;;;18.97;45.85;99490.89;;;;-56
2021/05/09 11:16:01;;;;;;;3.51;1.55;;;;;;;18.97;45.79;99487.55;;;;-55
2021/05/09 11:19:01;;;;;;;2.71;1.63;;;;;;;18.96;45.81;99481.95;;;;-55
2021/05/09 11:22:01;;;;;;;2.06;1.59;;;;;;;18.96;45.81;99483.16;;;;-57
2021/05/09 11:25:01;;;;;;;2.39;1.54;;;;;;;18.95;45.78;99479.52;;;;-54
2021/05/09 11:28:01;;;;;;;2.09;1.65;;;;;;;18.94;45.99;99471.56;;;;-56
2021/05/09 11:31:01;;;;;;;2.27;1.60;;;;;;;18.96;46.15;99461.80;;;;-57
2021/05/09 11:34:01;;;;;;;3.06;1.61;;;;;;;18.99;46.12;99464.98;;;;-46
2021/05/09 11:37:01;;;;;;;3.53;1.57;;;;;;;19.00;46.25;99463.57;;;;-53
2021/05/09 11:40:01;;;;;;;2.91;1.61;;;;;;;19.01;46.10;99464.97;;;;-53
2021/05/09 11:43:01;;;;;;;1.85;1.57;;;;;;;19.00;46.19;99461.39;;;;-53
2021/05/09 11:46:01;;;;;;;3.09;1.61;;;;;;;18.98;46.17;99447.42;;;;-54
2021/05/09 11:49:01;;;;;;;4.07;1.70;;;;;;;18.98;46.10;99444.83;;;;-54
2021/05/09 11:52:01;;;;;;;3.46;1.66;;;;;;;18.98;46.12;99441.59;;;;-54
2021/05/09 11:55:01;;;;;;;3.08;1.73;;;;;;;18.97;46.03;99438.11;;;;-54
2021/05/09 11:58:01;;;;;;;2.33;1.60;;;;;;;18.97;46.05;99433.23;;;;-54
2021/05/09 12:01:01;;;;;;;2.13;1.61;;;;;;;18.98;45.97;99431.69;;;;-54
2021/05/09 12:04:01;;;;;;;3.09;1.68;;;;;;;18.96;46.00;99429.00;;;;-56
2021/05/09 12:07:01;;;;;;;2.49;1.70;;;;;;;18.95;46.01;99429.35;;;;-54
2021/05/09 12:10:01;;;;;;;2.60;1.61;;;;;;;18.95;45.97;99427.56;;;;-57
2021/05/09 12:13:03;;;;;;;2.27;1.61;;;;;;;18.95;45.93;99421.48;;;;-57
2021/05/09 12:16:01;;;;;;;1.75;1.49;;;;;;;18.95;45.91;99420.52;;;;-54
2021/05/09 12:19:01;;;;;;;2.03;1.60;;;;;;;18.95;45.92;99423.03;;;;-53
2021/05/09 12:22:01;;;;;;;2.34;1.58;;;;;;;18.94;45.94;99416.30;;;;-53
2021/05/09 12:25:01;;;;;;;2.99;1.63;;;;;;;18.94;45.92;99421.31;;;;-53
2021/05/09 12:28:01;;;;;;;2.30;1.69;;;;;;;18.94;45.90;99415.97;;;;-55
2021/05/09 12:31:01;;;;;;;2.20;1.60;;;;;;;18.94;45.88;99418.48;;;;-54
2021/05/09 12:34:01;;;;;;;2.35;1.58;;;;;;;18.93;45.85;99411.02;;;;-54
2021/05/09 12:37:01;;;;;;;2.21;1.60;;;;;;;18.93;45.85;99411.11;;;;-54
2021/05/09 12:40:01;;;;;;;1.74;1.50;;;;;;;18.93;45.86;99408.84;;;;-54
2021/05/09 12:43:01;;;;;;;2.42;1.63;;;;;;;18.92;45.86;99402.09;;;;-56
2021/05/09 12:46:01;;;;;;;1.62;1.52;;;;;;;18.92;45.80;99390.98;;;;-52
2021/05/09 12:49:01;;;;;;;2.35;1.60;;;;;;;18.91;45.84;99395.22;;;;-55
2021/05/09 12:52:02;;;;;;;1.83;1.54;;;;;;;18.91;45.84;99396.52;;;;-57
2021/05/09 12:55:01;;;;;;;2.67;1.50;;;;;;;18.91;45.84;99390.74;;;;-56
2021/05/09 12:58:01;;;;;;;3.03;1.51;;;;;;;18.90;45.82;99382.14;;;;-55
2021/05/09 13:01:01;;;;;;;1.87;1.40;;;;;;;18.91;45.77;99381.00;;;;-55
2021/05/09 13:04:01;;;;;;;1.68;1.53;;;;;;;18.91;46.00;99378.02;;;;-48
2021/05/09 13:07:01;;;;;;;1.91;1.51;;;;;;;18.93;46.25;99376.70;;;;-53
2021/05/09 13:10:01;;;;;;;3.29;1.63;;;;;;;18.95;46.54;99375.28;;;;-52
2021/05/09 13:13:04;;;;;;;3.44;1.71;;;;;;;18.98;46.41;99375.24;;;;-51
2021/05/09 13:16:01;;;;;;;1.99;1.57;;;;;;;19.00;46.45;99370.85;;;;-53
2021/05/09 13:19:01;;;;;;;3.34;1.68;;;;;;;19.00;46.52;99368.83;;;;-52
2021/05/09 13:22:01;;;;;;;5.45;1.77;;;;;;;19.01;46.58;99370.45;;;;-49
2021/05/09 13:25:01;;;;;;;2.62;1.51;;;;;;;19.01;46.53;99362.07;;;;-52
2021/05/09 13:28:01;;;;;;;1.91;1.50;;;;;;;18.99;46.46;99358.05;;;;-55
2021/05/09 13:31:01;;;;;;;4.02;1.59;;;;;;;19.00;46.68;99355.17;;;;-61
2021/05/09 13:34:01;;;;;;;1.63;1.40;;;;;;;19.02;46.50;99339.02;;;;-55
2021/05/09 13:37:01;;;;;;;4.76;1.70;;;;;;;19.02;46.48;99336.41;;;;-59
2021/05/09 13:40:01;;;;;;;2.70;1.60;;;;;;;19.02;46.63;99330.00;;;;-53
2021/05/09 13:43:01;;;;;;;2.12;1.44;;;;;;;19.02;46.65;99326.83;;;;-55
2021/05/09 13:46:02;;;;;;;2.81;1.55;;;;;;;19.03;46.63;99329.92;;;;-53
2021/05/09 13:49:01;;;;;;;2.03;1.56;;;;;;;19.03;46.79;99323.83;;;;-52
2021/05/09 13:52:01;;;;;;;3.15;1.53;;;;;;;19.03;46.61;99322.75;;;;-52
2021/05/09 13:55:02;;;;;;;2.06;1.53;;;;;;;19.03;46.56;99322.11;;;;-52
2021/05/09 13:58:01;;;;;;;4.45;1.60;;;;;;;19.02;46.56;99319.12;;;;-52
2021/05/09 14:01:01;;;;;;;1.85;1.50;;;;;;;19.02;46.48;99314.09;;;;-51
2021/05/09 14:04:01;;;;;;;2.16;1.60;;;;;;;19.01;46.42;99307.52;;;;-51
2021/05/09 14:07:01;;;;;;;2.23;1.55;;;;;;;19.00;46.47;99305.48;;;;-51
2021/05/09 14:10:01;;;;;;;3.41;1.54;;;;;;;18.99;46.41;99302.59;;;;-52
2021/05/09 14:13:02;;;;;;;1.78;1.33;;;;;;;18.99;46.37;99297.88;;;;-52
2021/05/09 14:16:01;;;;;;;2.51;1.37;;;;;;;18.98;46.35;99289.84;;;;-51
2021/05/09 14:19:01;;;;;;;2.92;1.50;;;;;;;18.98;46.34;99290.17;;;;-54
2021/05/09 14:22:01;;;;;;;2.42;1.49;;;;;;;18.98;46.28;99282.63;;;;-50
2021/05/09 14:25:02;;;;;;;3.31;1.46;;;;;;;18.97;46.30;99286.78;;;;-52
2021/05/09 14:28:01;;;;;;;1.84;1.50;;;;;;;18.97;46.28;99279.81;;;;-52
2021/05/09 14:31:01;;;;;;;2.91;1.55;;;;;;;18.96;46.24;99280.22;;;;-54
2021/05/09 14:34:01;;;;;;;2.11;1.40;;;;;;;18.96;46.29;99279.89;;;;-52
2021/05/09 14:37:01;;;;;;;1.87;1.46;;;;;;;18.95;46.26;99271.14;;;;-51
2021/05/09 14:40:01;;;;;;;1.90;1.63;;;;;;;18.95;46.21;99271.46;;;;-50
2021/05/09 14:43:01;;;;;;;1.99;1.50;;;;;;;18.95;46.22;99262.45;;;;-51
2021/05/09 14:46:01;;;;;;;1.98;1.50;;;;;;;18.93;46.23;99257.11;;;;-54
2021/05/09 14:49:02;;;;;;;1.52;1.40;;;;;;;18.93;46.19;99260.19;;;;-51
2021/05/09 14:52:01;;;;;;;1.95;1.50;;;;;;;18.93;46.19;99261.16;;;;-52
2021/05/09 14:55:01;;;;;;;1.59;1.49;;;;;;;18.93;46.15;99258.41;;;;-54
2021/05/09 14:58:03;;;;;;;1.61;1.50;;;;;;;18.93;46.18;99251.69;;;;-54
2021/05/09 15:01:01;;;;;;;1.78;1.54;;;;;;;18.93;46.18;99247.63;;;;-54
2021/05/09 15:04:01;;;;;;;1.51;1.36;;;;;;;18.93;46.15;99247.79;;;;-51
2021/05/09 15:07:01;;;;;;;1.40;1.30;;;;;;;18.92;46.17;99239.25;;;;-50
2021/05/09 15:10:01;;;;;;;1.87;1.46;;;;;;;18.94;46.53;99240.69;;;;-51
2021/05/09 15:13:02;;;;;;;1.56;1.33;;;;;;;18.97;46.63;99227.20;;;;-53
2021/05/09 15:16:01;;;;;;;1.81;1.50;;;;;;;18.98;46.67;99230.42;;;;-51
2021/05/09 15:19:01;;;;;;;2.81;1.53;;;;;;;19.02;47.08;99223.89;;;;-54
2021/05/09 15:22:01;;;;;;;5.11;1.45;;;;;;;19.03;46.99;99225.67;;;;-56
2021/05/09 15:25:01;;;;;;;2.35;1.40;;;;;;;19.04;47.07;99218.98;;;;-55
2021/05/09 15:28:01;;;;;;;2.25;1.37;;;;;;;19.05;47.02;99211.84;;;;-53
2021/05/09 15:31:01;;;;;;;1.91;1.58;;;;;;;19.06;47.08;99207.59;;;;-53
2021/05/09 15:34:02;;;;;;;1.63;1.35;;;;;;;19.07;47.07;99197.09;;;;-55
2021/05/09 15:37:02;;;;;;;1.73;1.40;;;;;;;19.08;47.24;99192.55;;;;-52
2021/05/09 15:40:01;;;;;;;1.53;1.40;;;;;;;19.09;47.19;99189.70;;;;-51
2021/05/09 15:43:01;;;;;;;2.47;1.54;;;;;;;19.11;47.65;99181.88;;;;-55
2021/05/09 15:46:01;;;;;;;2.11;1.41;;;;;;;19.10;47.72;99183.36;;;;-53
2021/05/09 15:49:01;;;;;;;3.14;1.57;;;;;;;19.10;47.49;99178.48;;;;-49
2021/05/09 15:52:02;;;;;;;2.93;1.50;;;;;;;19.11;47.43;99175.14;;;;-52
2021/05/09 15:55:01;;;;;;;1.65;1.50;;;;;;;19.11;47.48;99171.64;;;;-56
2021/05/09 15:58:01;;;;;;;1.63;1.35;;;;;;;19.11;47.44;99171.17;;;;-51
2021/05/09 16:01:01;;;;;;;3.45;1.65;;;;;;;19.12;47.41;99169.28;;;;-53
2021/05/09 16:04:01;;;;;;;3.81;1.55;;;;;;;19.13;47.43;99163.59;;;;-59
2021/05/09 16:07:01;;;;;;;1.57;1.41;;;;;;;19.12;47.46;99156.13;;;;-58
2021/05/09 16:10:01;;;;;;;3.30;1.54;;;;;;;19.13;47.44;99159.59;;;;-52
2021/05/09 16:13:02;;;;;;;3.17;1.40;;;;;;;19.13;47.42;99150.09;;;;-60
2021/05/09 16:16:01;;;;;;;1.51;1.40;;;;;;;19.13;47.49;99149.04;;;;-51
2021/05/09 16:19:01;;;;;;;3.77;1.37;;;;;;;19.16;47.58;99153.00;;;;-51
2021/05/09 16:22:01;;;;;;;2.10;1.39;;;;;;;19.17;47.51;99150.03;;;;-52
2021/05/09 16:25:01;;;;;;;1.75;1.41;;;;;;;19.17;47.52;99144.84;;;;-59
2021/05/09 16:28:01;;;;;;;4.04;1.50;;;;;;;19.18;47.60;99142.73;;;;-57
2021/05/09 16:31:01;;;;;;;1.89;1.45;;;;;;;19.20;47.53;99147.42;;;;-57
2021/05/09 16:34:02;;;;;;;1.79;1.40;;;;;;;19.20;47.57;99143.60;;;;-54
2021/05/09 16:37:01;;;;;;;2.21;1.41;;;;;;;19.20;47.54;99131.74;;;;-57
2021/05/09 16:40:01;;;;;;;2.07;1.31;;;;;;;19.23;47.52;99135.28;;;;-50
2021/05/09 16:43:02;;;;;;;3.14;1.59;;;;;;;19.24;47.49;99138.69;;;;-53
2021/05/09 16:46:01;;;;;;;2.29;1.44;;;;;;;19.23;47.58;99141.44;;;;-50
2021/05/09 16:49:01;;;;;;;1.54;1.31;;;;;;;19.24;47.57;99141.44;;;;-51
2021/05/09 16:52:01;;;;;;;1.93;1.33;;;;;;;19.25;47.62;99143.42;;;;-50
2021/05/09 16:55:04;;;;;;;2.81;1.39;;;;;;;19.25;47.68;99145.06;;;;-52